• Join FlightAware (Why Join?)
  • Login
  • US Flag 
12:23AM EDT


 

Airport Tracker/Info


-or-


 

Live Flight TrackerFlight Track Log ✈ WBR2634 ✈ 25-Apr-2013 ✈ KBRL - KORD

Flight Track Log - Related Links

Times and Time Zones

All times are in EDT time to prevent confusion due to time zone crossing. See the WBR2634 flight status page for this flight to view local times or setup timezone preferences in your user account.

Time Position Orientation Groundspeed Altitude Reporting Facility
EDT Latitude Longitude Course Direction KTS MPH feet Rate Location/Type
05:55PM 40.8292 -91.1219 73° East 139 160 2,800  Level Chicago Center
05:56PM 40.8442 -91.0789 65° Northeast 129 148 3,800 840 Climbing Chicago Center
05:57PM 40.8729 -90.7252 72° East  Level FlightAware Approximate
05:57PM 40.8597 -91.0361 64° Northeast 129 148 4,600  Level Chicago Center
05:58PM 40.8868 -90.6684 73° East  Level FlightAware Approximate
05:58PM 40.8800 -90.9836 63° Northeast 133 153 5,600  Level Chicago Center
05:59PM 40.9001 -90.6112 73° East  Level FlightAware Approximate
05:59PM 40.8942 -90.9364 68° East 137 158 6,400  Level Chicago Center
06:00PM 40.9134 -90.5541 73° East  Level FlightAware Approximate
06:00PM 40.9078 -90.8875 70° East 140 161 7,400  Level Chicago Center
06:01PM 40.9217 -90.8397 69° East 140 161 8,200 660 Climbing Chicago Center
06:02PM 40.9392 -90.7925 64° Northeast 142 163 8,800 360 Climbing Chicago Center
06:03PM 40.9589 -90.7411 63° Northeast 155 178 9,000 60 Climbing Chicago Center
06:04PM 40.9814 -90.6711 67° East 171 197 9,000  Level Chicago Center
06:05PM 40.9978 -90.6142 69° East 168 193 9,100  Climbing Chicago Center
06:06PM 41.0142 -90.5578 69° East 165 190 9,100 -60 Level Chicago Center
06:07PM 41.0325 -90.4994 67° East 169 194 9,000  Descending Chicago Center
06:08PM 41.0517 -90.4439 65° Northeast 167 192 9,100  Climbing Chicago Center
06:09PM 41.0700 -90.3864 67° East 170 196 9,000  Descending Chicago Center
06:10PM 41.0894 -90.3292 66° East 170 196 9,100  Climbing Chicago Center
06:11PM 41.1114 -90.2581 68° East 172 198 9,000  Descending Chicago Center
06:12PM 41.1306 -90.2000 66° East 172 198 9,100  Climbing Chicago Center
06:13PM 41.1494 -90.1411 67° East 172 198 9,000 -60 Descending Chicago Center
06:14PM 41.1675 -90.0819 68° East 172 198 9,000  Level Chicago Center
06:15PM 41.1828 -90.0233 71° East 170 196 9,000  Level Chicago Center
06:16PM 41.1983 -89.9636 71° East 170 196 9,000  Level Chicago Center
06:17PM 41.2208 -89.8967 66° East 166 191 9,100  Climbing Chicago Center
06:18PM 41.2386 -89.8383 68° East 168 193 9,100  Level Chicago Center
06:19PM 41.2564 -89.7811 68° East 168 193 9,100  Level Chicago Center
06:20PM 41.2733 -89.7203 70° East 172 198 9,100  Level Chicago Center
06:21PM 41.2900 -89.6586 70° East 174 200 9,100  Level Chicago Center
06:22PM 41.3064 -89.5992 70° East 174 200 9,100 -60 Level Chicago Center
06:24PM 41.3258 -89.5406 66° East 174 200 9,000  Descending Chicago Center
06:25PM 41.3478 -89.4692 68° East 174 200 9,100  Climbing Chicago Center
06:26PM 41.3653 -89.4089 69° East 174 200 9,100 -60 Level Chicago Center
06:27PM 41.3836 -89.3494 68° East 174 200 9,000 -60 Descending Chicago Center
06:28PM 41.4008 -89.2903 69° East 172 198 9,000  Level Chicago Center
06:29PM 41.4178 -89.2319 69° East 169 194 9,100  Climbing Chicago Center
06:30PM 41.4372 -89.1647 69° East 168 193 9,100  Level Chicago Center
06:31PM 41.4556 -89.1064 67° East 169 194 9,100 -60 Level Chicago Center
06:32PM 41.4772 -89.0508 62° Northeast 170 196 9,000  Descending Chicago Center
06:33PM 41.4956 -88.9950 66° East 166 191 9,100 -120 Climbing Chicago Center
06:34PM 41.5150 -88.9389 65° Northeast 167 192 8,800 -420 Descending Chicago Center
06:35PM 41.5389 -88.8689 65° Northeast 173 199 8,300 -420 Descending Chicago Center
06:36PM 41.5589 -88.8117 65° Northeast 171 197 8,000 -120 Descending Chicago Center
06:37PM 41.5761 -88.7522 69° East 171 197 8,100  Climbing Chicago Center
06:38PM 41.5939 -88.6969 67° East 166 191 8,000 -60 Descending Chicago Center
06:39PM 41.6133 -88.6394 66° East 168 193 8,000  Level Chicago Center
06:41PM 41.6333 -88.5167 78° East 169 194 8,000  Level Chicago TRACON
06:42PM 41.6500 -88.4500 71° East 166 191 8,000  Level Chicago TRACON
06:43PM 41.6675 -88.3903 69° East 168 193 8,000  Level Chicago Center
06:44PM 41.6925 -88.3408 56° Northeast 166 191 8,100 -300 Climbing Chicago Center
06:45PM 41.7239 -88.2997 44° Northeast 159 183 7,500 -540 Descending Chicago Center
06:46PM 41.7608 -88.2422 49° Northeast 167 192 7,000 -300 Descending Chicago Center
06:47PM 41.7892 -88.1964 50° Northeast 161 185 7,000  Level Chicago Center
06:48PM 41.8197 -88.1553 45° Northeast 158 182 7,000  Level Chicago Center
06:49PM 41.8444 -88.1069 56° Northeast 158 182 7,000  Level Chicago Center
06:50PM 41.8600 -88.0489 70° East 164 189 7,100  Climbing Chicago Center
06:51PM 41.8633 -87.9872 86° East 165 190 7,000 -60 Descending Chicago Center
06:52PM 41.8633 -87.9125 90° East 167 192 7,000  Level Chicago Center
06:54PM 41.8664 -87.8500 86° East 168 193 7,000 -120 Level Chicago Center
06:54PM 41.8667 -87.8167 89° East 165 190 6,900 -540 Descending Chicago TRACON
06:55PM 41.8833 -87.7500 71° East 171 197 6,200 -720 Descending Chicago TRACON
06:56PM 41.8833 -87.6833 90° East 162 186 5,500 -660 Descending Chicago TRACON
06:57PM 41.9167 -87.6500 37° Northeast 158 182 4,900 -660 Descending Chicago TRACON
06:58PM 41.9500 -87.6667 340° North 140 161 4,200 -780 Descending Chicago TRACON
06:59PM 41.9667 -87.7167 294° West 138 159 3,400 -840 Descending Chicago TRACON
07:00PM 41.9667 -87.7667 270° West 150 173 2,600 -840 Descending Chicago TRACON
07:01PM 41.9667 -87.8167 270° West 145 167 1,800 -840 Descending Chicago TRACON
07:02PM 41.9667 -87.8667 270° West 125 144 1,000 -840 Descending Chicago TRACON
07:04PM 41.9667 -87.9000 289° West  Level FlightAware Approximate